createdAt,value
2023-08-08T00:00:29.372Z,1.60
2023-08-08T00:03:17.258Z,2.10
2023-08-08T00:05:45.308Z,2.00
2023-08-08T00:08:13.154Z,2.10
2023-08-08T00:10:41.018Z,1.70
2023-08-08T00:13:08.892Z,1.80
2023-08-08T00:15:37.826Z,1.60
2023-08-08T00:18:06.232Z,1.90
2023-08-08T00:20:34.331Z,1.60
2023-08-08T00:23:02.291Z,1.80
2023-08-08T00:25:30.055Z,1.60
2023-08-08T00:27:57.950Z,1.40
2023-08-08T00:30:25.904Z,1.60
2023-08-08T00:32:53.871Z,1.60
2023-08-08T00:35:21.826Z,2.00
2023-08-08T00:37:50.202Z,1.40
2023-08-08T00:40:18.172Z,1.50
2023-08-08T00:42:46.044Z,2.30
2023-08-08T00:45:14.016Z,1.70
2023-08-08T00:47:42.128Z,1.80
2023-08-08T00:50:11.682Z,1.90
2023-08-08T00:52:40.472Z,1.90
2023-08-08T00:55:09.243Z,2.10
2023-08-08T00:57:39.469Z,1.80
2023-08-08T01:00:10.465Z,1.70
2023-08-08T01:02:38.845Z,1.50
2023-08-08T01:05:08.944Z,1.80
2023-08-08T01:07:39.744Z,1.90
2023-08-08T01:10:12.554Z,1.80
2023-08-08T01:12:43.515Z,2.10
2023-08-08T01:17:42.129Z,1.70
2023-08-08T01:20:11.838Z,1.60
2023-08-08T01:22:44.704Z,2.00
2023-08-08T01:25:12.857Z,2.10
2023-08-08T01:27:40.895Z,1.70
2023-08-08T01:30:10.257Z,1.90
2023-08-08T01:32:38.110Z,2.00
2023-08-08T01:35:06.926Z,2.10
2023-08-08T01:37:45.569Z,1.90
2023-08-08T01:40:18.571Z,2.20
2023-08-08T01:42:47.854Z,1.90
2023-08-08T01:45:19.315Z,1.90
2023-08-08T01:47:53.558Z,1.80
2023-08-08T01:50:22.724Z,1.60
2023-08-08T01:52:50.584Z,2.40
2023-08-08T01:55:18.548Z,1.70
2023-08-08T01:57:46.418Z,1.50
2023-08-08T02:00:14.796Z,2.20
2023-08-08T02:02:43.152Z,1.70
2023-08-08T02:05:11.160Z,2.40
2023-08-08T02:07:39.108Z,2.30
2023-08-08T02:10:07.851Z,1.70
2023-08-08T02:12:36.398Z,1.30
2023-08-08T02:15:05.771Z,2.20
2023-08-08T02:17:33.697Z,1.80
2023-08-08T02:20:01.615Z,1.80
2023-08-08T02:22:29.473Z,2.00
2023-08-08T02:24:57.265Z,1.60
2023-08-08T02:27:25.940Z,2.30
2023-08-08T02:29:53.999Z,2.40
2023-08-08T02:32:21.862Z,2.00
2023-08-08T02:34:49.725Z,1.80
2023-08-08T02:37:17.696Z,1.60
2023-08-08T02:39:46.071Z,1.90
2023-08-08T02:42:13.935Z,2.10
2023-08-08T02:44:41.699Z,1.60
2023-08-08T02:47:09.598Z,1.70
2023-08-08T02:49:37.692Z,1.90
2023-08-08T02:52:05.857Z,2.60
2023-08-08T02:54:33.779Z,2.00
2023-08-08T02:57:01.845Z,1.80
2023-08-08T02:59:30.260Z,1.90
2023-08-08T03:01:58.433Z,1.70
2023-08-08T03:04:26.804Z,2.70
2023-08-08T03:06:54.660Z,2.30
2023-08-08T03:09:22.772Z,1.90
2023-08-08T03:11:50.614Z,1.70
2023-08-08T03:14:18.553Z,1.80
2023-08-08T03:16:46.516Z,1.90
2023-08-08T03:19:14.414Z,1.80
2023-08-08T03:21:42.497Z,1.80
2023-08-08T03:24:10.725Z,1.90
2023-08-08T03:26:38.600Z,1.80
2023-08-08T03:29:06.505Z,1.90
2023-08-08T03:31:34.631Z,1.80
2023-08-08T03:34:02.517Z,1.50
2023-08-08T03:36:30.361Z,1.80
2023-08-08T03:38:59.180Z,1.70
2023-08-08T03:41:27.014Z,1.90
2023-08-08T03:43:54.884Z,2.10
2023-08-08T03:46:22.978Z,2.00
2023-08-08T03:48:54.051Z,2.30
2023-08-08T03:51:22.470Z,1.90
2023-08-08T03:53:50.350Z,1.80
2023-08-08T03:56:18.138Z,2.10
2023-08-08T03:58:46.272Z,1.60
2023-08-08T04:01:14.205Z,1.80
2023-08-08T04:03:42.277Z,2.10
2023-08-08T04:06:10.107Z,1.90
2023-08-08T04:08:37.947Z,1.50
2023-08-08T04:11:05.915Z,1.60
2023-08-08T04:13:33.896Z,1.70
2023-08-08T04:16:02.258Z,1.90
2023-08-08T04:18:30.125Z,1.60
2023-08-08T04:20:57.991Z,2.00
2023-08-08T04:23:27.231Z,1.50
2023-08-08T04:25:55.364Z,1.80
2023-08-08T04:28:23.225Z,1.50
2023-08-08T04:30:51.089Z,1.50
2023-08-08T04:33:19.167Z,1.70
2023-08-08T04:35:48.767Z,1.70
2023-08-08T04:38:17.252Z,2.30
2023-08-08T04:40:45.216Z,1.60
2023-08-08T04:43:13.025Z,2.20
2023-08-08T04:45:40.957Z,1.70
2023-08-08T04:48:08.809Z,2.00
2023-08-08T04:50:36.684Z,1.60
2023-08-08T04:53:04.753Z,2.20
2023-08-08T04:55:32.818Z,1.90
2023-08-08T04:58:00.693Z,2.10
2023-08-08T05:00:29.052Z,1.70
2023-08-08T05:02:57.128Z,1.90
2023-08-08T05:05:25.100Z,1.90
2023-08-08T05:07:53.007Z,1.80
2023-08-08T05:10:20.936Z,2.20
2023-08-08T05:12:48.803Z,2.00
2023-08-08T05:15:16.878Z,1.60
2023-08-08T05:17:44.859Z,2.00
2023-08-08T05:20:13.526Z,1.70
2023-08-08T05:22:41.598Z,1.80
2023-08-08T05:25:10.361Z,1.90
2023-08-08T05:27:38.172Z,2.20
2023-08-08T05:30:06.871Z,2.00
2023-08-08T05:32:34.831Z,1.80
2023-08-08T05:35:05.649Z,2.20
2023-08-08T05:37:33.635Z,2.30
2023-08-08T05:40:01.671Z,1.80
2023-08-08T05:42:29.646Z,2.30
2023-08-08T05:44:57.605Z,1.60
2023-08-08T05:47:25.893Z,2.00
2023-08-08T05:49:53.893Z,1.50
2023-08-08T05:52:22.649Z,1.80
2023-08-08T05:54:50.497Z,1.80
2023-08-08T05:57:18.673Z,1.80
2023-08-08T05:59:46.465Z,1.80
2023-08-08T06:02:14.298Z,2.00
2023-08-08T06:04:42.269Z,2.00
2023-08-08T06:07:10.357Z,1.70
2023-08-08T06:09:41.489Z,1.80
2023-08-08T06:12:10.200Z,1.60
2023-08-08T06:14:38.145Z,1.90
2023-08-08T06:17:06.930Z,1.70
2023-08-08T06:19:34.862Z,2.10
2023-08-08T06:22:04.589Z,1.50
2023-08-08T06:24:33.212Z,1.60
2023-08-08T06:27:01.258Z,1.70
2023-08-08T06:29:29.233Z,1.60
2023-08-08T06:31:57.318Z,1.70
2023-08-08T06:34:25.773Z,1.70
2023-08-08T06:36:53.861Z,1.70
2023-08-08T06:39:23.050Z,1.90
2023-08-08T06:41:51.674Z,1.80
2023-08-08T06:44:23.905Z,2.10
2023-08-08T06:46:53.025Z,1.60
2023-08-08T06:49:21.464Z,1.90
2023-08-08T06:51:49.441Z,1.60
2023-08-08T06:54:17.820Z,1.60
2023-08-08T06:56:46.095Z,1.70
2023-08-08T06:59:14.465Z,1.70
2023-08-08T07:01:42.597Z,2.00
2023-08-08T07:04:10.821Z,1.80
2023-08-08T07:06:40.963Z,1.70
2023-08-08T07:09:15.911Z,2.00
2023-08-08T07:11:45.782Z,1.80
2023-08-08T07:14:17.982Z,1.70
2023-08-08T07:16:46.420Z,1.90
2023-08-08T07:19:14.497Z,1.90
2023-08-08T07:21:48.096Z,1.70
2023-08-08T07:24:16.165Z,1.90
2023-08-08T07:26:44.844Z,1.90
2023-08-08T07:29:12.756Z,1.60
2023-08-08T07:31:40.790Z,1.90
2023-08-08T07:34:08.750Z,1.90
2023-08-08T07:36:36.817Z,1.80
2023-08-08T07:39:04.791Z,1.50
2023-08-08T07:41:33.279Z,2.40
2023-08-08T07:44:01.248Z,2.10
2023-08-08T07:46:29.646Z,2.00
2023-08-08T07:49:00.552Z,2.00
2023-08-08T07:51:28.931Z,2.10
2023-08-08T07:53:56.897Z,2.00
2023-08-08T07:56:25.009Z,1.90
2023-08-08T07:58:53.142Z,2.20
2023-08-08T08:01:21.044Z,1.60
2023-08-08T08:03:49.177Z,2.00
2023-08-08T08:06:17.351Z,1.70
2023-08-08T08:08:45.627Z,1.70
2023-08-08T08:11:14.520Z,2.20
2023-08-08T08:13:42.424Z,2.10
2023-08-08T08:16:10.356Z,2.10
2023-08-08T08:18:38.324Z,1.80
2023-08-08T08:21:06.404Z,1.90
2023-08-08T08:23:34.989Z,1.80
2023-08-08T08:26:04.190Z,1.60
2023-08-08T08:28:32.442Z,2.00
2023-08-08T08:31:06.190Z,1.90
2023-08-08T08:33:34.125Z,1.70
2023-08-08T08:36:02.189Z,1.60
2023-08-08T08:38:30.162Z,1.50
2023-08-08T08:40:58.892Z,1.70
2023-08-08T08:43:27.371Z,1.40
2023-08-08T08:45:56.246Z,1.40
2023-08-08T08:48:24.742Z,1.90
2023-08-08T08:50:53.281Z,1.50
2023-08-08T08:53:23.284Z,1.80
2023-08-08T08:55:52.695Z,1.40
2023-08-08T08:58:21.887Z,1.70
2023-08-08T09:00:50.688Z,1.40
2023-08-08T09:03:18.916Z,1.70
2023-08-08T09:05:47.355Z,1.80
2023-08-08T09:08:16.485Z,1.90
2023-08-08T09:10:44.546Z,1.70
2023-08-08T09:13:12.464Z,1.80
2023-08-08T09:15:41.224Z,1.80
2023-08-08T09:18:09.253Z,1.70
2023-08-08T09:20:37.127Z,1.80
2023-08-08T09:23:05.360Z,1.30
2023-08-08T09:25:33.741Z,1.60
2023-08-08T09:28:02.012Z,1.60
2023-08-08T09:30:32.247Z,2.00
2023-08-08T09:33:02.882Z,1.40
2023-08-08T09:35:31.790Z,1.50
2023-08-08T09:38:00.477Z,1.50
2023-08-08T09:40:29.133Z,1.40
2023-08-08T09:42:58.395Z,1.30
2023-08-08T09:45:26.801Z,1.50
2023-08-08T09:47:54.811Z,1.70
2023-08-08T09:50:23.051Z,1.10
2023-08-08T09:52:51.863Z,1.20
2023-08-08T09:55:20.121Z,1.20
2023-08-08T09:57:49.862Z,1.50
2023-08-08T10:00:18.420Z,1.50
2023-08-08T10:02:47.127Z,1.70
2023-08-08T10:05:16.087Z,1.80
2023-08-08T10:07:47.556Z,1.70
2023-08-08T10:10:17.033Z,1.30
2023-08-08T10:12:45.208Z,1.90
2023-08-08T10:15:13.692Z,1.50
2023-08-08T10:17:44.180Z,1.10
2023-08-08T10:20:13.045Z,1.50
2023-08-08T10:22:47.060Z,1.60
2023-08-08T10:25:26.444Z,1.60
2023-08-08T10:28:24.604Z,1.30
2023-08-08T10:30:57.806Z,1.00
2023-08-08T10:33:28.134Z,1.50
2023-08-08T10:36:04.708Z,1.40
2023-08-08T10:38:59.806Z,1.20
2023-08-08T10:41:27.801Z,1.20
2023-08-08T10:43:58.632Z,1.50
2023-08-08T10:49:02.889Z,1.10
2023-08-08T10:51:38.711Z,1.20
2023-08-08T10:54:07.797Z,1.60
2023-08-08T10:56:37.766Z,1.20
2023-08-08T10:59:21.923Z,1.10
2023-08-08T11:01:52.382Z,0.80
2023-08-08T11:04:23.009Z,1.20
2023-08-08T11:06:51.502Z,1.20
2023-08-08T11:09:21.669Z,1.20
2023-08-08T11:11:50.007Z,1.10
2023-08-08T11:14:20.853Z,1.00
2023-08-08T11:19:20.622Z,1.20
2023-08-08T11:21:49.710Z,1.00
2023-08-08T11:24:17.850Z,1.00
2023-08-08T11:26:49.003Z,1.50
2023-08-08T11:29:17.237Z,1.00
2023-08-08T11:31:45.215Z,1.20
2023-08-08T11:34:17.158Z,1.10
2023-08-08T11:36:45.802Z,1.20
2023-08-08T11:39:15.758Z,0.90
2023-08-08T11:41:44.649Z,1.10
2023-08-08T11:44:13.358Z,1.20
2023-08-08T11:46:46.818Z,1.00
2023-08-08T11:49:17.178Z,1.00
2023-08-08T11:51:47.069Z,1.30
2023-08-08T11:54:16.127Z,1.10
2023-08-08T11:56:46.898Z,1.10
2023-08-08T11:59:14.910Z,0.90
2023-08-08T12:01:45.339Z,0.90
2023-08-08T12:04:13.577Z,1.20
2023-08-08T12:06:43.864Z,1.30
2023-08-08T12:09:15.034Z,1.10
2023-08-08T12:11:43.265Z,1.10
2023-08-08T12:14:12.017Z,1.20
2023-08-08T12:16:40.990Z,1.20
2023-08-08T12:19:12.606Z,1.60
2023-08-08T12:21:41.078Z,1.10
2023-08-08T12:24:09.123Z,1.10
2023-08-08T12:26:37.839Z,1.20
2023-08-08T12:29:06.069Z,1.20
2023-08-08T12:31:34.131Z,1.30
2023-08-08T12:34:02.432Z,1.30
2023-08-08T12:36:30.387Z,1.30
2023-08-08T12:38:58.673Z,0.90
2023-08-08T12:41:27.043Z,0.80
2023-08-08T12:43:55.015Z,0.90
2023-08-08T12:46:23.023Z,1.10
2023-08-08T12:48:50.941Z,1.30
2023-08-08T12:51:19.418Z,1.40
2023-08-08T12:53:47.281Z,1.30
2023-08-08T12:56:15.765Z,1.10
2023-08-08T12:58:43.736Z,1.10
2023-08-08T13:01:12.017Z,1.00
2023-08-08T13:03:45.323Z,1.00
2023-08-08T13:06:16.035Z,1.20
2023-08-08T13:08:44.106Z,1.30
2023-08-08T13:11:12.186Z,1.10
2023-08-08T13:13:40.145Z,1.20
2023-08-08T13:16:08.032Z,1.10
2023-08-08T13:18:36.083Z,1.20
2023-08-08T13:21:06.313Z,1.00
2023-08-08T13:26:02.650Z,1.00
2023-08-08T13:28:31.421Z,1.20
2023-08-08T13:30:59.752Z,1.00
2023-08-08T13:33:27.782Z,1.50
2023-08-08T13:35:55.948Z,1.10
2023-08-08T13:38:25.571Z,1.50
2023-08-08T13:40:56.298Z,1.30
2023-08-08T13:43:25.210Z,1.10
2023-08-08T13:45:53.486Z,1.50
2023-08-08T13:48:29.663Z,1.00
2023-08-08T13:50:58.414Z,1.60
2023-08-08T13:53:29.242Z,1.00
2023-08-08T13:55:58.175Z,1.30
2023-08-08T13:58:27.153Z,1.80
2023-08-08T14:00:59.125Z,1.10
2023-08-08T14:03:27.759Z,1.20
2023-08-08T14:05:57.377Z,1.20
2023-08-08T14:08:26.513Z,1.20
2023-08-08T14:10:56.293Z,1.00
2023-08-08T14:13:29.588Z,0.90
2023-08-08T14:15:57.984Z,1.10
2023-08-08T14:18:26.872Z,1.00
2023-08-08T14:20:56.369Z,1.00
2023-08-08T14:23:24.841Z,2.10
2023-08-08T14:25:53.170Z,1.00
2023-08-08T14:28:23.613Z,0.90
2023-08-08T14:33:20.601Z,1.20
2023-08-08T14:35:48.880Z,0.80
2023-08-08T14:38:17.282Z,1.10
2023-08-08T14:40:45.319Z,1.10
2023-08-08T14:43:13.393Z,1.20
2023-08-08T14:45:42.267Z,1.20
2023-08-08T14:48:10.249Z,1.10
2023-08-08T14:50:38.578Z,1.20
2023-08-08T14:53:07.114Z,1.10
2023-08-08T14:55:35.058Z,1.00
2023-08-08T14:58:03.011Z,1.00
2023-08-08T15:00:30.899Z,0.90
2023-08-08T15:02:58.803Z,0.80
2023-08-08T15:05:27.039Z,0.80
2023-08-08T15:07:55.137Z,1.30
2023-08-08T15:10:23.179Z,1.10
2023-08-08T15:12:51.462Z,1.00
2023-08-08T15:15:21.772Z,1.30
2023-08-08T15:17:50.356Z,1.10
2023-08-08T15:20:18.877Z,1.20
2023-08-08T15:22:46.868Z,1.10
2023-08-08T15:25:14.916Z,1.00
2023-08-08T15:27:42.872Z,1.10
2023-08-08T15:30:11.708Z,1.40
2023-08-08T15:32:39.738Z,1.00
2023-08-08T15:35:08.328Z,1.10
2023-08-08T15:37:36.291Z,0.90
2023-08-08T15:40:04.956Z,0.90
2023-08-08T15:42:33.149Z,1.10
2023-08-08T15:45:01.494Z,1.20
2023-08-08T15:47:29.712Z,1.10
2023-08-08T15:49:57.944Z,0.90
2023-08-08T15:52:26.221Z,1.20
2023-08-08T15:54:54.179Z,1.20
2023-08-08T15:57:22.654Z,1.60
2023-08-08T15:59:50.758Z,1.00
2023-08-08T16:02:19.366Z,1.30
2023-08-08T16:04:48.074Z,1.40
2023-08-08T16:07:19.922Z,1.10
2023-08-08T16:09:48.139Z,1.40
2023-08-08T16:12:16.179Z,1.10
2023-08-08T16:14:44.224Z,1.00
2023-08-08T16:17:12.257Z,1.10
2023-08-08T16:19:40.237Z,1.30
2023-08-08T16:22:08.485Z,1.30
2023-08-08T16:24:36.693Z,1.00
2023-08-08T16:27:05.031Z,1.00
2023-08-08T16:29:33.104Z,1.20
2023-08-08T16:32:01.177Z,0.90
2023-08-08T16:34:32.236Z,1.00
2023-08-08T16:37:00.535Z,1.20
2023-08-08T16:39:31.220Z,1.40
2023-08-08T16:42:08.824Z,1.20
2023-08-08T16:44:39.137Z,1.10
2023-08-08T16:47:08.030Z,1.10
2023-08-08T16:49:37.431Z,1.00
2023-08-08T16:52:09.054Z,1.30
2023-08-08T16:54:39.537Z,1.00
2023-08-08T16:57:13.021Z,1.30
2023-08-08T16:59:41.642Z,1.10
2023-08-08T17:02:10.991Z,1.10
2023-08-08T17:04:40.604Z,1.40
2023-08-08T17:07:15.434Z,1.30
2023-08-08T17:09:44.972Z,1.20
2023-08-08T17:12:14.555Z,1.40
2023-08-08T17:14:42.762Z,1.50
2023-08-08T17:17:12.125Z,1.20
2023-08-08T17:19:40.503Z,1.10
2023-08-08T17:22:09.824Z,1.40
2023-08-08T17:24:40.571Z,1.20
2023-08-08T17:27:09.321Z,1.50
2023-08-08T17:29:45.684Z,1.10
2023-08-08T17:32:14.878Z,1.40
2023-08-08T17:34:43.365Z,1.30
2023-08-08T17:37:11.329Z,1.40
2023-08-08T17:39:39.305Z,1.20
2023-08-08T17:42:07.280Z,1.20
2023-08-08T17:44:35.335Z,1.40
2023-08-08T17:47:03.304Z,1.30
2023-08-08T17:49:31.165Z,1.30
2023-08-08T17:51:59.444Z,1.80
2023-08-08T17:54:27.569Z,1.70
2023-08-08T17:56:55.376Z,5.10
2023-08-08T17:59:25.900Z,3.30
2023-08-08T18:01:56.708Z,1.80
2023-08-08T18:04:24.723Z,1.40
2023-08-08T18:06:52.686Z,1.30
2023-08-08T18:09:20.770Z,1.70
2023-08-08T18:11:48.713Z,1.50
2023-08-08T18:14:16.682Z,1.70
2023-08-08T18:16:44.647Z,1.60
2023-08-08T18:19:12.628Z,1.90
2023-08-08T18:21:40.493Z,2.00
2023-08-08T18:24:09.241Z,1.90
2023-08-08T18:26:37.137Z,1.60
2023-08-08T18:29:05.704Z,1.80
2023-08-08T18:31:34.038Z,1.90
2023-08-08T18:34:03.184Z,1.80
2023-08-08T18:36:31.672Z,1.80
2023-08-08T18:38:59.738Z,2.10
2023-08-08T18:41:28.223Z,3.70
2023-08-08T18:43:56.494Z,6.90
2023-08-08T18:46:24.810Z,8.10
2023-08-08T18:48:53.899Z,6.40
2023-08-08T18:51:23.569Z,6.60
2023-08-08T18:53:54.004Z,6.70
2023-08-08T18:56:22.144Z,5.80
2023-08-08T18:58:51.674Z,4.20
2023-08-08T19:01:19.895Z,2.70
2023-08-08T19:03:50.552Z,2.40
2023-08-08T19:06:19.176Z,1.90
2023-08-08T19:09:08.902Z,2.30
2023-08-08T19:11:38.794Z,2.10
2023-08-08T19:14:06.939Z,2.50
2023-08-08T19:16:36.759Z,2.50
2023-08-08T19:19:05.550Z,2.80
2023-08-08T19:21:34.131Z,2.70
2023-08-08T19:24:02.481Z,2.70
2023-08-08T19:26:34.710Z,2.50
2023-08-08T19:29:04.361Z,2.50
2023-08-08T19:31:32.921Z,2.60
2023-08-08T19:34:07.012Z,2.50
2023-08-08T19:36:38.542Z,2.40
2023-08-08T19:39:06.804Z,2.90
2023-08-08T19:41:34.850Z,11.10
2023-08-08T19:44:02.925Z,5.20
2023-08-08T19:46:30.855Z,3.00
2023-08-08T19:48:58.755Z,2.90
2023-08-08T19:51:29.124Z,2.80
2023-08-08T19:53:59.290Z,2.80
2023-08-08T19:56:27.930Z,2.20
2023-08-08T19:58:55.971Z,2.40
2023-08-08T20:01:26.349Z,2.50
2023-08-08T20:03:54.356Z,2.40
2023-08-08T20:06:22.633Z,2.30
2023-08-08T20:08:50.685Z,3.30
2023-08-08T20:11:18.754Z,2.50
2023-08-08T20:13:47.066Z,2.30
2023-08-08T20:16:15.254Z,2.50
2023-08-08T20:18:43.286Z,1.80
2023-08-08T20:21:11.247Z,2.20
2023-08-08T20:23:39.111Z,2.30
2023-08-08T20:26:07.485Z,2.30
2023-08-08T20:28:35.494Z,2.20
2023-08-08T20:31:04.150Z,2.20
2023-08-08T20:33:32.520Z,2.20
2023-08-08T20:36:00.686Z,2.10
2023-08-08T20:38:30.361Z,2.20
2023-08-08T20:41:00.627Z,2.10
2023-08-08T20:43:29.023Z,2.30
2023-08-08T20:46:16.318Z,2.20
2023-08-08T20:48:47.578Z,2.30
2023-08-08T20:51:16.586Z,2.60
2023-08-08T20:53:47.907Z,1.90
2023-08-08T20:56:23.461Z,2.00
2023-08-08T20:58:53.386Z,4.10
2023-08-08T21:01:24.338Z,2.70
2023-08-08T21:03:55.168Z,2.30
2023-08-08T21:06:26.732Z,2.20
2023-08-08T21:09:00.080Z,2.10
2023-08-08T21:11:30.662Z,2.60
2023-08-08T21:13:59.304Z,2.20
2023-08-08T21:16:31.071Z,2.00
2023-08-08T21:19:01.184Z,2.40
2023-08-08T21:21:31.913Z,2.20
2023-08-08T21:24:00.241Z,3.00
2023-08-08T21:26:38.581Z,2.10
2023-08-08T21:29:09.293Z,2.00
2023-08-08T21:31:45.182Z,2.30
2023-08-08T21:34:14.900Z,1.70
2023-08-08T21:36:43.893Z,2.10
2023-08-08T21:39:11.956Z,1.90
2023-08-08T21:41:40.036Z,2.70
2023-08-08T21:44:08.002Z,2.00
2023-08-08T21:46:35.941Z,2.20
2023-08-08T21:49:04.033Z,2.00
2023-08-08T21:51:31.905Z,1.80
2023-08-08T21:53:59.780Z,2.50
2023-08-08T21:56:27.730Z,2.00
2023-08-08T21:58:55.638Z,2.20
2023-08-08T22:01:23.567Z,2.10
2023-08-08T22:03:51.747Z,2.30
2023-08-08T22:06:20.217Z,1.80
2023-08-08T22:08:47.999Z,1.90
2023-08-08T22:11:15.848Z,2.10
2023-08-08T22:13:43.919Z,2.20
2023-08-08T22:16:11.910Z,2.30
2023-08-08T22:18:39.849Z,2.40
2023-08-08T22:21:08.337Z,2.50
2023-08-08T22:23:36.345Z,2.50
2023-08-08T22:26:04.266Z,2.40
2023-08-08T22:28:32.468Z,3.00
2023-08-08T22:31:00.460Z,2.60
2023-08-08T22:33:28.582Z,3.20
2023-08-08T22:35:56.775Z,2.80
2023-08-08T22:38:24.840Z,2.60
2023-08-08T22:40:53.130Z,2.10
2023-08-08T22:43:21.683Z,2.30
2023-08-08T22:45:49.983Z,2.20
2023-08-08T22:48:18.540Z,1.90
2023-08-08T22:50:46.717Z,2.40
2023-08-08T22:53:14.717Z,2.30
2023-08-08T22:55:45.829Z,2.10
2023-08-08T22:58:15.173Z,2.40
2023-08-08T23:00:43.922Z,2.70
2023-08-08T23:03:12.119Z,2.40
2023-08-08T23:05:40.366Z,2.20
2023-08-08T23:08:09.144Z,2.40
2023-08-08T23:10:37.048Z,2.60
2023-08-08T23:13:04.983Z,1.90
2023-08-08T23:15:32.801Z,2.60
2023-08-08T23:18:00.637Z,2.20
2023-08-08T23:20:28.991Z,2.40
2023-08-08T23:22:56.901Z,2.40
2023-08-08T23:25:26.296Z,2.50
2023-08-08T23:27:54.657Z,2.40
2023-08-08T23:30:22.819Z,2.20
2023-08-08T23:32:54.533Z,2.20
2023-08-08T23:35:23.644Z,2.30
2023-08-08T23:37:52.480Z,2.50
2023-08-08T23:40:20.721Z,2.00
2023-08-08T23:42:48.941Z,1.80
2023-08-08T23:45:16.884Z,2.20
2023-08-08T23:47:44.777Z,2.10
2023-08-08T23:50:13.724Z,2.00
2023-08-08T23:52:41.997Z,2.00
2023-08-08T23:55:11.084Z,2.50
2023-08-08T23:57:39.084Z,1.80
